LFLB Airport Information

Runway Information
Runway 18 Length 6628 ft width 148 ft
Elevation 769 ft Threshold 755 ft Heading 176
Runway 36 Length 6628 ft Width 148 ft
Elevation 778 ft Threshold 460 ft Heading 356
Airport Frequencies
Type APP Name CHAMBERY A Frequency 123.7 MHZ
Type ATIS Name CHAMBERY A Frequency 124.575 MHZ
Type TWR Name CHAMBERY T Frequency 118.3 MHZ
Airport Navaids
Airport Weather Information & NOTAM
ADDS - METARS form results

(2155 UTC 12 July 2020)
Data provider http://aviationweather.gov/metar/data/
 
METAR text: LFLB 122130Z AUTO 01010KT CAVOK 22/10 Q1020
Conditions at: LFLB (CHAMBERY/AIX BAI, FR) observed 2130 UTC 12 July 2020
Temperature: 22.0°C (72°F)
Dewpoint: 10.0°C (50°F) [RH = 46%]
Pressure (altimeter): 30.12 inches Hg (1020.0 mb)
Winds: from the N (10 degrees) at 12 MPH (10 knots; 5.1 m/s)
Visibility: 6 or more miles (10+ km)
Ceiling: ceiling and visibility are OK
Clouds: unknown
Weather: no significant weather observed at this time

METAR text: LFLB 122100Z AUTO 36011KT CAVOK 23/09 Q1019
Conditions at: LFLB (CHAMBERY/AIX BAI, FR) observed 2100 UTC 12 July 2020
Temperature: 23.0°C (73°F)
Dewpoint: 9.0°C (48°F) [RH = 41%]
Pressure (altimeter): 30.09 inches Hg (1019.0 mb)
Winds: from the N (360 degrees) at 13 MPH (11 knots; 5.7 m/s)
Visibility: 6 or more miles (10+ km)
Ceiling: ceiling and visibility are OK
Clouds: unknown
Weather: no significant weather observed at this time

Forecast for: LFLB (CHAMBERY/AIX BAI, FR)
Text: TAF LFLB 121100Z 1212/1312 36010KT CAVOK
Forecast period: 1200 UTC 12 July 2020 to 1200 UTC 13 July 2020
Forecast type: FROM: standard forecast or significant change
Winds: from the N (360 degrees) at 12 MPH (10 knots; 5.1 m/s)
Visibility: 6 or more miles 10+ km)
Ceiling: unknown
Clouds: missing
Weather: NSW  (no significant weather)
Text: PROB30
Forecast period: 0300 to 0700 UTC 13 July 2020
Forecast type: TEMPORARY: The following changes expected for less than half the time period
Winds: variable direction winds at 2 MPH (2 knots; 1.0 m/s)
Visibility: missing
Ceiling: unknown
Clouds: missing
Weather: no significant weather forecast for this period